Time;durP1;ratioP1;P1;durP2;ratioP2;P2;SDS_P1;SDS_P2;PMS_P1;PMS_P2;Temp;Humidity;BMP_temperature;BMP_pressure;BME280_temperature;BME280_humidity;BME280_pressure;Samples;Min_cycle;Max_cycle;Signal;HPM_P1;HPM_P2
2022/05/13 00:01:44;;;;;;;2.13;0.28;;;19.00;48.80;;;;;;5072230;28;20541;-73
2022/05/13 00:04:10;;;;;;;0.93;0.10;;;19.00;48.80;;;;;;5072482;28;20036;-72
2022/05/13 00:06:36;;;;;;;1.05;0.20;;;19.00;48.90;;;;;;5072617;28;20540;-72
2022/05/13 00:09:02;;;;;;;0.47;0.10;;;19.00;48.90;;;;;;5072021;28;20040;-67
2022/05/13 00:11:28;;;;;;;1.25;0.30;;;19.00;48.90;;;;;;5071949;28;20048;-72
2022/05/13 00:13:54;;;;;;;1.27;0.20;;;19.00;48.90;;;;;;5071361;28;20048;-72
2022/05/13 00:16:19;;;;;;;1.20;0.40;;;18.90;48.90;;;;;;5072132;28;20451;-72
2022/05/13 00:18:45;;;;;;;0.95;0.10;;;18.90;48.90;;;;;;5072186;28;20373;-72
2022/05/13 00:21:11;;;;;;;1.23;0.20;;;18.90;49.00;;;;;;5073018;28;20044;-74
2022/05/13 00:23:36;;;;;;;0.50;0.20;;;18.90;49.00;;;;;;5071743;28;20040;-72
2022/05/13 00:26:02;;;;;;;0.75;0.20;;;18.90;49.00;;;;;;5071660;28;20049;-73
2022/05/13 00:28:31;;;;;;;1.15;0.30;;;18.90;49.00;;;;;;5071924;28;20042;-72
2022/05/13 00:31:03;;;;;;;0.68;0.20;;;19.00;49.10;;;;;;5071575;28;20040;-66
2022/05/13 00:33:29;;;;;;;1.30;0.38;;;18.80;49.00;;;;;;5071921;28;20068;-72
2022/05/13 00:35:57;;;;;;;0.80;0.17;;;18.80;49.10;;;;;;5071454;28;20427;-73
2022/05/13 00:38:23;;;;;;;1.13;0.20;;;18.80;49.10;;;;;;5072696;28;20429;-72
2022/05/13 00:40:52;;;;;;;1.05;0.13;;;18.80;49.10;;;;;;5072690;28;20051;-72
2022/05/13 00:43:39;;;;;;;1.30;0.30;;;18.80;49.10;;;;;;5071702;28;20040;-72
2022/05/13 00:46:05;;;;;;;1.27;0.25;;;18.80;49.10;;;;;;5071466;28;20045;-66
2022/05/13 00:48:31;;;;;;;2.20;0.20;;;18.80;49.00;;;;;;5072221;28;20480;-72
2022/05/13 00:50:57;;;;;;;0.50;0.10;;;18.80;49.00;;;;;;5071160;28;20052;-72
2022/05/13 00:53:24;;;;;;;0.77;0.20;;;18.80;49.10;;;;;;5072708;28;20361;-72
2022/05/13 00:55:52;;;;;;;0.93;0.15;;;18.80;49.10;;;;;;5072458;28;20070;-72
2022/05/13 00:58:19;;;;;;;1.00;0.20;;;18.80;49.10;;;;;;5071347;28;20047;-72
2022/05/13 01:00:47;;;;;;;0.38;0.10;;;18.80;49.00;;;;;;5071664;28;20101;-71
2022/05/13 01:03:13;;;;;;;1.15;0.20;;;18.80;49.10;;;;;;5071697;28;20049;-72
2022/05/13 01:05:42;;;;;;;1.35;0.32;;;18.80;49.10;;;;;;5071110;28;20087;-72
2022/05/13 01:08:11;;;;;;;0.68;0.10;;;18.80;49.00;;;;;;5071193;28;20041;-72
2022/05/13 01:10:39;;;;;;;0.63;0.10;;;18.70;49.00;;;;;;5070858;28;20396;-72
2022/05/13 01:13:09;;;;;;;1.13;0.20;;;18.70;49.00;;;;;;5072189;28;20111;-72
2022/05/13 01:15:39;;;;;;;1.08;0.25;;;18.70;49.00;;;;;;5071178;28;20040;-71
2022/05/13 01:18:05;;;;;;;1.02;0.15;;;18.70;49.00;;;;;;5070694;28;20046;-73
2022/05/13 01:20:46;;;;;;;0.77;0.20;;;18.70;49.00;;;;;;5071093;28;20093;-72
2022/05/13 01:23:23;;;;;;;0.60;0.10;;;18.70;49.00;;;;;;5070593;28;20042;-72
2022/05/13 01:25:54;;;;;;;1.55;0.30;;;18.70;49.00;;;;;;5071194;28;20384;-72
2022/05/13 01:28:26;;;;;;;0.57;0.30;;;18.70;49.00;;;;;;5070750;28;20051;-73
2022/05/13 01:30:55;;;;;;;0.60;0.20;;;18.70;49.00;;;;;;5071219;28;20044;-72
2022/05/13 01:33:21;;;;;;;0.82;0.25;;;18.70;49.00;;;;;;5070808;28;20488;-73
2022/05/13 01:35:50;;;;;;;1.42;0.20;;;18.70;49.00;;;;;;5070944;28;20041;-71
2022/05/13 01:38:17;;;;;;;0.75;0.20;;;18.70;49.00;;;;;;5072267;28;20384;-72
2022/05/13 01:40:43;;;;;;;0.60;0.17;;;18.70;49.00;;;;;;5070693;28;20053;-72
2022/05/13 01:43:10;;;;;;;0.38;0.10;;;18.60;49.00;;;;;;5070538;28;20053;-72
2022/05/13 01:45:36;;;;;;;2.28;0.17;;;18.60;49.00;;;;;;5070533;28;20040;-73
2022/05/13 01:48:04;;;;;;;0.90;0.20;;;18.60;49.00;;;;;;5070757;28;20079;-66
2022/05/13 01:50:30;;;;;;;0.40;0.13;;;18.60;49.00;;;;;;5070280;28;20066;-73
2022/05/13 01:52:56;;;;;;;1.23;0.13;;;18.60;49.00;;;;;;5070703;28;20040;-71
2022/05/13 01:55:22;;;;;;;0.93;0.20;;;18.60;49.00;;;;;;5069882;28;20040;-72
2022/05/13 01:57:50;;;;;;;0.47;0.15;;;18.60;49.00;;;;;;5070215;28;20571;-73
2022/05/13 02:00:16;;;;;;;1.08;0.35;;;18.60;49.00;;;;;;5071819;28;20044;-71
2022/05/13 02:05:27;;;;;;;1.38;0.25;;;18.60;49.00;;;;;;5069997;28;20488;-74
2022/05/13 02:07:53;;;;;;;0.70;0.10;;;18.60;49.00;;;;;;5070753;28;20047;-73
2022/05/13 02:10:19;;;;;;;1.20;0.30;;;18.60;49.10;;;;;;5070163;28;20036;-67
2022/05/13 02:12:44;;;;;;;0.40;0.10;;;18.60;49.10;;;;;;5070196;28;20041;-71
2022/05/13 02:15:10;;;;;;;1.70;0.40;;;18.60;49.00;;;;;;5071631;28;20040;-73
2022/05/13 02:17:36;;;;;;;1.65;0.10;;;18.50;49.10;;;;;;5070093;28;20040;-73
2022/05/13 02:20:07;;;;;;;1.55;0.20;;;18.60;49.10;;;;;;5070358;28;20399;-72
2022/05/13 02:22:33;;;;;;;1.33;0.20;;;18.60;49.10;;;;;;5069963;28;20044;-74
2022/05/13 02:24:59;;;;;;;1.10;0.17;;;18.50;49.00;;;;;;5069376;28;20049;-71
2022/05/13 02:27:26;;;;;;;0.82;0.20;;;18.60;49.10;;;;;;5068181;28;20475;-71
2022/05/13 02:29:51;;;;;;;1.50;0.30;;;18.60;49.10;;;;;;5069927;28;20037;-71
2022/05/13 02:32:17;;;;;;;1.45;0.10;;;18.60;49.10;;;;;;5071615;28;20048;-72
2022/05/13 02:34:43;;;;;;;1.13;0.13;;;18.50;49.00;;;;;;5069800;28;20082;-71
2022/05/13 02:37:09;;;;;;;0.82;0.17;;;18.60;49.10;;;;;;5072912;28;20068;-66
2022/05/13 02:39:34;;;;;;;0.93;0.20;;;18.50;49.10;;;;;;5073828;28;20106;-72
2022/05/13 02:42:03;;;;;;;0.75;0.20;;;18.50;49.10;;;;;;5073585;28;20036;-71
2022/05/13 02:44:29;;;;;;;0.95;0.17;;;18.50;49.10;;;;;;5073691;28;20182;-71
2022/05/13 02:46:55;;;;;;;0.50;0.05;;;18.50;49.10;;;;;;5073432;28;20531;-71
2022/05/13 02:49:21;;;;;;;0.80;0.20;;;18.50;49.10;;;;;;5073189;28;20048;-71
2022/05/13 02:51:48;;;;;;;1.52;0.10;;;18.50;49.10;;;;;;5074728;28;20047;-71
2022/05/13 02:54:14;;;;;;;2.03;0.20;;;18.50;49.10;;;;;;5073728;28;20036;-71
2022/05/13 02:56:39;;;;;;;1.35;0.40;;;18.50;49.10;;;;;;5073255;28;20037;-71
2022/05/13 02:59:06;;;;;;;1.52;0.32;;;18.50;49.20;;;;;;5073280;28;20040;-70
2022/05/13 03:01:34;;;;;;;1.90;0.20;;;18.50;49.10;;;;;;5074598;28;20119;-72
2022/05/13 03:04:00;;;;;;;1.48;0.28;;;18.50;49.10;;;;;;5073709;28;20045;-70
2022/05/13 03:06:27;;;;;;;1.13;0.10;;;18.50;49.20;;;;;;5074394;28;20033;-70
2022/05/13 03:08:54;;;;;;;2.50;0.15;;;18.40;49.10;;;;;;5074720;28;20041;-71
2022/05/13 03:11:21;;;;;;;1.75;0.20;;;18.40;49.10;;;;;;5074408;28;20488;-70
2022/05/13 03:13:49;;;;;;;1.55;0.20;;;18.40;49.10;;;;;;5073051;28;20025;-70
2022/05/13 03:16:19;;;;;;;1.63;0.20;;;18.40;49.10;;;;;;5073243;28;20040;-70
2022/05/13 03:18:46;;;;;;;1.03;0.20;;;18.40;49.10;;;;;;5073193;28;20071;-70
2022/05/13 03:21:13;;;;;;;0.70;0.20;;;18.40;49.20;;;;;;5072913;28;20051;-71
2022/05/13 03:23:42;;;;;;;0.77;0.20;;;18.40;49.10;;;;;;5072973;28;20028;-73
2022/05/13 03:26:08;;;;;;;1.33;0.30;;;18.40;49.20;;;;;;5072676;28;20041;-69
2022/05/13 03:28:34;;;;;;;0.65;0.13;;;18.40;49.10;;;;;;5074199;28;20384;-72
2022/05/13 03:31:00;;;;;;;2.35;0.50;;;18.40;49.20;;;;;;5074075;28;20043;-70
2022/05/13 03:33:26;;;;;;;1.33;0.32;;;18.40;49.20;;;;;;5072983;28;20075;-70
2022/05/13 03:35:52;;;;;;;1.35;0.30;;;18.40;49.20;;;;;;5072754;28;20613;-70
2022/05/13 03:38:18;;;;;;;1.73;0.20;;;18.40;49.20;;;;;;5074192;28;20048;-70
2022/05/13 03:40:46;;;;;;;0.85;0.20;;;18.40;49.20;;;;;;5072544;28;20032;-71
2022/05/13 03:43:12;;;;;;;1.75;0.30;;;18.40;49.20;;;;;;5073960;28;20376;-69
2022/05/13 03:45:38;;;;;;;1.63;0.20;;;18.30;49.10;;;;;;5076412;28;20013;-71
2022/05/13 03:48:05;;;;;;;1.35;0.20;;;18.40;49.20;;;;;;5072354;28;20055;-71
2022/05/13 03:50:32;;;;;;;1.63;0.20;;;18.30;49.10;;;;;;5072031;28;20044;-66
2022/05/13 03:52:59;;;;;;;2.10;0.30;;;18.30;49.20;;;;;;5072604;28;20316;-66
2022/05/13 03:55:25;;;;;;;1.55;0.22;;;18.30;49.20;;;;;;5071748;28;20086;-66
2022/05/13 03:57:51;;;;;;;1.27;0.20;;;18.30;49.20;;;;;;5073879;28;20032;-65
2022/05/13 04:00:20;;;;;;;2.42;0.20;;;18.30;49.20;;;;;;5072449;28;20473;-65
2022/05/13 04:02:46;;;;;;;1.85;0.20;;;18.30;49.20;;;;;;5072238;28;20040;-70
2022/05/13 04:10:43;;;;;;;1.70;0.22;;;18.30;49.20;;;;;;5071630;28;20403;-70
2022/05/13 04:16:10;;;;;;;2.08;0.73;;;18.30;49.30;;;;;;5071869;28;20131;-67
2022/05/13 04:18:44;;;;;;;;;;;18.30;49.30;;;;;;5072119;28;20055;-70
2022/05/13 04:21:13;;;;;;;0.80;0.20;;;18.30;49.40;;;;;;5071803;28;19999;-70
2022/05/13 04:23:42;;;;;;;0.90;0.20;;;18.30;49.30;;;;;;5071906;28;20530;-70
2022/05/13 04:26:12;;;;;;;2.33;0.40;;;18.30;49.40;;;;;;5072994;28;20036;-70
2022/05/13 04:28:38;;;;;;;1.43;0.50;;;18.30;49.40;;;;;;5071698;28;20111;-71
2022/05/13 04:31:04;;;;;;;1.85;0.20;;;18.30;49.40;;;;;;5072917;28;20741;-70
2022/05/13 04:33:30;;;;;;;0.93;0.32;;;18.30;49.40;;;;;;5071800;28;20047;-70
2022/05/13 04:35:55;;;;;;;2.40;0.32;;;18.30;49.40;;;;;;5071549;28;20047;-70
2022/05/13 04:38:21;;;;;;;1.17;0.20;;;18.30;49.50;;;;;;5071522;28;20119;-71
2022/05/13 04:40:47;;;;;;;2.55;0.20;;;18.30;49.40;;;;;;5071575;28;20046;-67
2022/05/13 04:43:12;;;;;;;1.55;0.30;;;18.30;49.40;;;;;;5071490;28;20054;-66
2022/05/13 04:45:38;;;;;;;1.15;0.28;;;18.30;49.50;;;;;;5071393;28;20141;-70
2022/05/13 04:48:26;;;;;;;2.28;0.50;;;18.30;49.50;;;;;;5072571;28;20120;-66
2022/05/13 04:53:34;;;;;;;1.60;0.35;;;18.30;49.60;;;;;;5152458;27;1176782;-66
2022/05/13 04:56:02;;;;;;;2.08;0.30;;;18.30;49.60;;;;;;5153041;27;20478;-66
2022/05/13 04:58:28;;;;;;;2.95;0.30;;;18.30;49.60;;;;;;5153380;27;20436;-69
2022/05/13 05:00:58;;;;;;;0.70;0.20;;;18.30;49.60;;;;;;5152952;27;20038;-71
2022/05/13 05:03:28;;;;;;;1.40;0.20;;;18.30;49.70;;;;;;5153079;27;20042;-66
2022/05/13 05:05:54;;;;;;;1.43;0.30;;;18.30;50.40;;;;;;5153070;27;20046;-70
2022/05/13 05:08:20;;;;;;;2.85;0.45;;;18.30;49.60;;;;;;5152953;27;20038;-71
2022/05/13 05:10:46;;;;;;;2.50;0.40;;;18.30;49.70;;;;;;5153033;27;20094;-70
2022/05/13 05:13:25;;;;;;;1.73;0.22;;;18.30;49.60;;;;;;5152717;27;20039;-70
2022/05/13 05:15:51;;;;;;;2.13;0.40;;;18.30;49.70;;;;;;5152801;27;20418;-70
2022/05/13 05:18:16;;;;;;;1.67;0.20;;;18.30;49.70;;;;;;5152667;27;20035;-70
2022/05/13 05:20:43;;;;;;;2.65;0.40;;;18.30;49.70;;;;;;5152641;27;20042;-71
2022/05/13 05:23:20;;;;;;;2.15;0.30;;;18.30;49.70;;;;;;5152812;27;20049;-71
2022/05/13 05:25:46;;;;;;;1.75;0.25;;;18.30;49.80;;;;;;5171180;27;20514;-69
2022/05/13 05:28:13;;;;;;;1.83;0.30;;;18.30;49.70;;;;;;5150910;27;20147;-73
2022/05/13 05:30:43;;;;;;;1.52;0.20;;;18.30;49.70;;;;;;5163561;27;20109;-72
2022/05/13 05:33:09;;;;;;;;;;;18.40;50.00;;;;;;5183797;27;20031;-70
2022/05/13 05:35:35;;;;;;;2.30;0.20;;;18.40;51.00;;;;;;5152352;27;20270;-70
2022/05/13 05:38:04;;;;;;;1.88;0.30;;;18.50;50.80;;;;;;5152592;27;20031;-71
2022/05/13 05:40:30;;;;;;;2.15;0.20;;;18.50;51.30;;;;;;5152336;27;20038;-67
2022/05/13 05:42:56;;;;;;;0.90;0.20;;;18.50;51.50;;;;;;5151734;27;20047;-71
2022/05/13 05:45:23;;;;;;;2.33;0.50;;;18.60;51.30;;;;;;5149795;27;20036;-69
2022/05/13 05:47:49;;;;;;;1.75;0.30;;;18.60;51.50;;;;;;5161715;27;20039;-69
2022/05/13 05:50:18;;;;;;;2.20;0.30;;;18.70;51.60;;;;;;5150039;27;20087;-70
2022/05/13 05:52:45;;;;;;;4.30;0.38;;;18.70;51.30;;;;;;5149936;27;20049;-68
2022/05/13 06:00:46;;;;;;;3.85;0.40;;;18.70;51.00;;;;;;5112720;27;20186;-72
2022/05/13 06:03:13;;;;;;;6.13;0.32;;;18.80;51.20;;;;;;5098818;28;20062;-73
2022/05/13 06:05:39;;;;;;;5.75;0.70;;;18.80;51.30;;;;;;5079940;28;20044;-71
2022/05/13 06:08:05;;;;;;;3.15;0.45;;;18.90;51.40;;;;;;5080172;28;20460;-68
2022/05/13 06:10:32;;;;;;;5.25;0.93;;;18.90;51.40;;;;;;5077551;28;20072;-67
2022/05/13 06:12:58;;;;;;;2.72;0.52;;;18.90;51.20;;;;;;5077056;28;20120;-68
2022/05/13 06:15:25;;;;;;;3.30;0.43;;;19.00;51.20;;;;;;5075880;28;20123;-71
2022/05/13 06:17:56;;;;;;;4.93;0.73;;;19.00;51.10;;;;;;5078777;28;20037;-69
2022/05/13 06:20:25;;;;;;;2.90;0.50;;;19.10;51.00;;;;;;5063257;28;20071;-67
2022/05/13 06:22:51;;;;;;;5.53;1.13;;;19.10;50.80;;;;;;5063101;28;20127;-67
2022/05/13 06:25:19;;;;;;;2.72;0.30;;;19.10;50.70;;;;;;5064651;28;20120;-73
2022/05/13 06:27:46;;;;;;;1.38;0.35;;;19.20;50.70;;;;;;5080144;28;20044;-70
2022/05/13 06:30:16;;;;;;;2.13;0.55;;;19.20;50.60;;;;;;5082170;28;20052;-72
2022/05/13 06:32:42;;;;;;;2.47;0.60;;;19.20;50.60;;;;;;5066079;28;20048;-71
2022/05/13 06:35:09;;;;;;;5.05;0.57;;;19.30;50.70;;;;;;5061172;28;20135;-71
2022/05/13 06:37:35;;;;;;;5.13;0.75;;;19.30;50.70;;;;;;5064350;28;20056;-72
2022/05/13 06:40:01;;;;;;;2.03;0.40;;;19.30;50.60;;;;;;5067845;28;20037;-70
2022/05/13 06:42:27;;;;;;;3.25;0.20;;;19.30;50.40;;;;;;5072546;28;20116;-70
2022/05/13 06:44:55;;;;;;;3.80;0.82;;;19.30;50.40;;;;;;5074002;28;20032;-67
2022/05/13 06:47:21;;;;;;;4.38;0.75;;;19.40;50.50;;;;;;5073262;28;20043;-69
2022/05/13 06:49:46;;;;;;;2.60;0.40;;;19.30;50.50;;;;;;5075746;28;20043;-72
2022/05/13 06:52:13;;;;;;;2.30;0.40;;;19.40;50.80;;;;;;5073407;28;20050;-67
2022/05/13 06:54:41;;;;;;;4.43;0.50;;;19.40;50.70;;;;;;5072189;28;20380;-71
2022/05/13 06:57:07;;;;;;;4.95;0.60;;;19.40;50.80;;;;;;5074677;28;20048;-74
2022/05/13 06:59:33;;;;;;;7.88;0.68;;;19.30;51.00;;;;;;5076509;28;20052;-69
2022/05/13 07:01:59;;;;;;;4.30;0.63;;;19.40;51.20;;;;;;5068117;28;20102;-71
2022/05/13 07:04:24;;;;;;;6.53;0.90;;;19.40;51.10;;;;;;5069677;28;20079;-73
2022/05/13 07:06:50;;;;;;;5.38;1.05;;;19.30;51.50;;;;;;5065049;28;20041;-72
2022/05/13 07:09:16;;;;;;;4.03;0.63;;;19.30;51.20;;;;;;5068312;28;20053;-67
2022/05/13 07:11:44;;;;;;;3.97;0.40;;;19.40;51.20;;;;;;5050309;28;20064;-72
2022/05/13 07:14:10;;;;;;;0.95;0.28;;;19.40;51.10;;;;;;5052690;28;20045;-66
2022/05/13 07:16:36;;;;;;;4.40;0.32;;;19.40;50.90;;;;;;5060916;28;20083;-72
2022/05/13 07:19:02;;;;;;;5.20;1.02;;;19.50;50.90;;;;;;5051109;28;20469;-73
2022/05/13 07:21:28;;;;;;;2.95;0.60;;;19.50;50.90;;;;;;5051647;28;20095;-74
2022/05/13 07:23:53;;;;;;;8.63;0.50;;;19.50;51.10;;;;;;5061074;28;20440;-69
2022/05/13 07:26:19;;;;;;;3.08;0.30;;;19.50;51.10;;;;;;5052389;28;20063;-69
2022/05/13 07:28:45;;;;;;;3.08;0.22;;;19.60;51.00;;;;;;5054164;28;20127;-71
2022/05/13 07:31:13;;;;;;;5.45;0.40;;;19.60;50.90;;;;;;5055385;28;20533;-70
2022/05/13 07:33:41;;;;;;;2.03;0.57;;;19.50;51.10;;;;;;5062354;28;20045;-69
2022/05/13 07:36:07;;;;;;;3.40;0.60;;;19.60;51.30;;;;;;5053776;28;20047;-68
2022/05/13 07:38:34;;;;;;;4.50;0.38;;;19.60;51.40;;;;;;5054121;28;20045;-67
2022/05/13 07:41:31;;;;;;;3.42;0.30;;;19.60;51.40;;;;;;5054683;28;20050;-64
2022/05/13 07:43:46;;;;;;;2.85;0.30;;;19.70;51.20;;;;;;5042646;28;20523;-74
2022/05/13 07:46:13;;;;;;;2.03;0.38;;;19.70;51.10;;;;;;5046853;28;20047;-66
2022/05/13 07:48:40;;;;;;;3.72;0.28;;;19.70;51.10;;;;;;5052950;28;20051;-73
2022/05/13 07:51:08;;;;;;;2.70;0.32;;;19.70;50.90;;;;;;5049851;28;20044;-73
2022/05/13 07:53:34;;;;;;;2.53;0.30;;;19.70;50.90;;;;;;5061892;28;20071;-73
2022/05/13 07:56:01;;;;;;;4.32;0.40;;;19.80;51.10;;;;;;5062281;28;20056;-72
2022/05/13 07:58:28;;;;;;;1.95;0.30;;;19.80;51.20;;;;;;5051351;28;20123;-73
2022/05/13 08:00:54;;;;;;;1.75;0.30;;;19.90;51.50;;;;;;5057979;28;20053;-70
2022/05/13 08:03:21;;;;;;;4.30;0.35;;;19.90;51.60;;;;;;5051870;28;20048;-73
2022/05/13 08:05:52;;;;;;;5.20;0.30;;;19.90;51.70;;;;;;5048023;28;20048;-74
2022/05/13 08:08:21;;;;;;;2.17;0.30;;;19.90;51.70;;;;;;5048055;28;20052;-72
2022/05/13 08:10:51;;;;;;;3.60;0.20;;;19.90;51.60;;;;;;5053697;28;20048;-72
2022/05/13 08:13:18;;;;;;;2.33;0.20;;;20.00;51.60;;;;;;5056582;28;20037;-70
2022/05/13 08:15:44;;;;;;;4.22;0.88;;;20.00;51.40;;;;;;5055390;28;20510;-68
2022/05/13 08:18:09;;;;;;;1.88;0.40;;;20.10;51.40;;;;;;5053484;28;20405;-72
2022/05/13 08:20:36;;;;;;;3.30;0.20;;;20.10;51.10;;;;;;5049991;28;20459;-73
2022/05/13 08:23:02;;;;;;;2.72;0.40;;;20.20;50.80;;;;;;5056720;28;20037;-71
2022/05/13 08:25:28;;;;;;;3.03;0.40;;;20.20;50.60;;;;;;5050017;28;20041;-70
2022/05/13 08:27:53;;;;;;;2.08;0.30;;;20.20;50.50;;;;;;5051218;28;20044;-70
2022/05/13 08:30:19;;;;;;;6.20;0.20;;;20.30;50.70;;;;;;5054916;28;20163;-72
2022/05/13 08:32:45;;;;;;;2.63;0.20;;;20.40;50.50;;;;;;5056830;28;20132;-74
2022/05/13 08:35:13;;;;;;;2.33;0.20;;;20.40;50.20;;;;;;5051575;28;20381;-73
2022/05/13 08:37:44;;;;;;;2.25;0.20;;;20.40;50.00;;;;;;5058041;28;20115;-74
2022/05/13 08:43:12;;;;;;;2.67;0.20;;;20.40;49.90;;;;;;5053375;27;20412;-73
2022/05/13 08:45:44;;;;;;;0.50;0.20;;;20.40;49.40;;;;;;5057298;28;20048;-73
2022/05/13 08:48:14;;;;;;;1.55;0.20;;;20.50;49.20;;;;;;5044277;28;20080;-72
2022/05/13 08:50:53;;;;;;;5.13;0.38;;;20.50;48.90;;;;;;5061901;28;20064;-76
2022/05/13 08:56:09;;;;;;;3.90;0.52;;;20.50;48.80;;;;;;5086871;27;20757;-74
2022/05/13 08:58:42;;;;;;;8.23;0.85;;;20.50;48.80;;;;;;5089629;28;20156;-69
2022/05/13 09:01:14;;;;;;;2.35;0.20;;;20.60;48.80;;;;;;5119149;27;20134;-71
2022/05/13 09:03:46;;;;;;;5.68;0.30;;;20.60;48.80;;;;;;5089621;28;20048;-75
2022/05/13 09:06:37;;;;;;;1.65;0.32;;;20.60;48.80;;;;;;5083834;28;20040;-74
2022/05/13 09:09:05;;;;;;;1.92;0.38;;;20.70;48.80;;;;;;5085551;28;20399;-72
2022/05/13 09:20:10;;;;;;;2.65;0.20;;;20.80;48.80;;;;;;5080823;27;20429;-73
2022/05/13 09:28:00;;;;;;;3.10;0.13;;;20.80;48.30;;;;;;5044695;27;20757;-72
2022/05/13 09:30:35;;;;;;;2.40;0.40;;;20.90;48.40;;;;;;5044031;28;20129;-73
2022/05/13 09:36:28;;;;;;;6.25;0.70;;;20.90;49.00;;;;;;5095575;27;20951;-69
2022/05/13 09:38:57;;;;;;;2.55;0.20;;;20.90;48.90;;;;;;5094185;28;20048;-73
2022/05/13 09:41:37;;;;;;;5.13;0.28;;;20.90;49.10;;;;;;5111933;28;20092;-72
2022/05/13 09:46:47;;;;;;;5.13;0.30;;;20.80;49.10;;;;;;5062559;27;20462;-72
2022/05/13 09:49:26;;;;;;;6.00;0.98;;;20.80;49.10;;;;;;5058173;28;20499;-74
2022/05/13 09:51:59;;;;;;;1.60;0.20;;;20.80;49.10;;;;;;5054648;28;20464;-72
2022/05/13 09:59:52;;;;;;;3.60;0.20;;;20.80;49.20;;;;;;5100211;27;20880;-72
2022/05/13 10:14:04;;;;;;;3.08;0.20;;;21.20;48.40;;;;;;5061128;28;20048;-74
2022/05/13 10:16:23;;;;;;;1.52;0.20;;;21.40;48.20;;;;;;5055864;28;20052;-73
2022/05/13 10:18:59;;;;;;;3.33;0.22;;;21.50;47.80;;;;;;5094507;28;20557;-72
2022/05/13 10:21:31;;;;;;;3.15;0.40;;;21.50;47.50;;;;;;5059580;28;20063;-73
2022/05/13 10:24:40;;;;;;;4.30;0.30;;;21.60;47.40;;;;;;5063639;28;20052;-73
2022/05/13 10:27:12;;;;;;;8.23;0.38;;;21.60;47.30;;;;;;5075616;28;20353;-66
2022/05/13 10:29:45;;;;;;;4.03;0.30;;;21.60;47.20;;;;;;5050301;28;20048;-76
2022/05/13 10:32:25;;;;;;;4.93;0.20;;;21.60;47.00;;;;;;5056295;28;20039;-74
2022/05/13 10:34:56;;;;;;;2.10;0.55;;;21.60;47.00;;;;;;5053843;28;20047;-76
2022/05/13 10:40:13;;;;;;;1.25;0.25;;;21.60;46.90;;;;;;5125697;27;20590;-66
2022/05/13 10:42:45;;;;;;;1.25;0.10;;;21.60;46.70;;;;;;5105119;28;20058;-72
2022/05/13 10:48:12;;;;;;;3.85;0.40;;;21.50;46.70;;;;;;5088895;27;20490;-72
2022/05/13 10:51:17;;;;;;;2.90;0.20;;;21.50;46.60;;;;;;5082637;28;20033;-73
2022/05/13 10:54:23;;;;;;;1.90;0.28;;;21.50;46.50;;;;;;5060850;28;20386;-71
2022/05/13 11:10:32;;;;;;;2.30;0.40;;;21.60;46.40;;;;;;5098493;27;1172523;-71
2022/05/13 11:13:20;;;;;;;1.23;0.17;;;21.70;46.50;;;;;;5092213;28;20083;-72
2022/05/13 11:18:52;;;;;;;1.95;0.22;;;21.70;46.30;;;;;;5070895;28;20417;-72
2022/05/13 11:32:55;;;;;;;1.75;0.30;;;21.80;46.00;;;;;;5107952;27;1165155;-73
2022/05/13 11:38:19;;;;;;;4.85;0.30;;;21.80;46.00;;;;;;5088246;27;20438;-72
2022/05/13 11:51:43;;;;;;;2.72;0.20;;;21.80;46.20;;;;;;5090351;27;20445;-72
2022/05/13 11:57:23;;;;;;;3.72;0.32;;;21.80;46.90;;;;;;5071206;27;20528;-73
2022/05/13 11:59:54;;;;;;;6.45;0.50;;;21.80;46.90;;;;;;5068237;28;20125;-73
2022/05/13 12:02:56;;;;;;;1.88;0.30;;;21.80;46.90;;;;;;5054740;28;20044;-73
2022/05/13 12:14:09;;;;;;;2.47;0.60;;;21.90;45.90;;;;;;5069285;27;20134;-73
2022/05/13 12:22:46;;;;;;;2.17;0.20;;;21.90;45.20;;;;;;5051319;28;20212;-71
2022/05/13 12:28:24;;;;;;;3.50;0.30;;;21.90;45.10;;;;;;5062486;27;20495;-73
2022/05/13 12:30:52;;;;;;;6.80;0.30;;;21.90;45.20;;;;;;5052431;28;20150;-72
2022/05/13 12:39:18;;;;;;;2.47;0.30;;;22.00;45.30;;;;;;5120324;27;20054;-73
2022/05/13 12:44:36;;;;;;;6.05;0.32;;;22.00;45.20;;;;;;5107898;27;20471;-74
2022/05/13 12:47:20;;;;;;;5.43;0.40;;;22.00;45.10;;;;;;5086581;28;20430;-74
2022/05/13 12:55:21;;;;;;;4.78;0.75;;;22.00;45.10;;;;;;5049844;28;20459;-71
2022/05/13 12:57:51;;;;;;;5.30;0.47;;;21.90;44.30;;;;;;5044330;28;20056;-73
2022/05/13 13:00:23;;;;;;;3.42;0.57;;;21.90;44.10;;;;;;5057685;28;20494;-72
2022/05/13 13:02:54;;;;;;;4.93;0.30;;;21.90;43.90;;;;;;5074955;28;20177;-71
2022/05/13 13:05:29;;;;;;;4.03;0.30;;;21.80;43.60;;;;;;5069311;28;20105;-71
2022/05/13 13:08:04;;;;;;;4.70;0.40;;;21.80;43.50;;;;;;5046884;28;20052;-71
2022/05/13 13:10:31;;;;;;;3.65;0.28;;;21.80;43.10;;;;;;5049529;28;20425;-72
2022/05/13 13:13:13;;;;;;;5.22;0.30;;;21.80;43.10;;;;;;5055069;28;20056;-72
2022/05/13 13:15:47;;;;;;;1.88;0.50;;;21.70;42.80;;;;;;5048631;28;20504;-73
2022/05/13 13:18:13;;;;;;;5.53;0.30;;;21.80;42.90;;;;;;5050006;28;20668;-74
2022/05/13 13:20:53;;;;;;;4.63;0.30;;;21.80;42.90;;;;;;5055923;28;20248;-69
2022/05/13 13:23:22;;;;;;;2.83;0.50;;;21.80;43.00;;;;;;5054414;28;20045;-74
2022/05/13 13:25:51;;;;;;;5.07;0.40;;;21.70;43.10;;;;;;5058618;28;20040;-74
2022/05/13 13:28:25;;;;;;;6.13;0.38;;;21.70;43.00;;;;;;5077678;28;20680;-74
2022/05/13 13:30:58;;;;;;;3.45;0.20;;;21.70;43.00;;;;;;5063173;28;20523;-75
2022/05/13 13:33:33;;;;;;;3.63;0.70;;;21.70;43.00;;;;;;5065419;28;20060;-73
2022/05/13 13:36:17;;;;;;;4.80;0.30;;;21.70;43.10;;;;;;5062851;28;20063;-67
2022/05/13 13:38:49;;;;;;;1.10;0.20;;;21.70;43.20;;;;;;5063794;28;20047;-67
2022/05/13 13:41:34;;;;;;;4.35;0.40;;;21.80;43.20;;;;;;5062899;28;20045;-73
2022/05/13 13:44:02;;;;;;;3.28;0.20;;;21.80;43.20;;;;;;5063035;28;20392;-75
2022/05/13 13:46:34;;;;;;;2.33;0.40;;;21.70;43.10;;;;;;5060391;28;20651;-76
2022/05/13 13:49:08;;;;;;;4.13;0.20;;;21.80;43.10;;;;;;5062772;28;20049;-75
2022/05/13 13:51:43;;;;;;;1.42;0.22;;;21.80;43.10;;;;;;5069119;28;20044;-68
2022/05/13 13:54:16;;;;;;;1.90;0.40;;;21.80;43.20;;;;;;5052187;28;20128;-74
2022/05/13 13:56:53;;;;;;;3.70;0.60;;;21.80;43.30;;;;;;5063174;28;20055;-76
2022/05/13 13:59:46;;;;;;;3.53;0.20;;;21.90;43.40;;;;;;5061463;28;20040;-72
2022/05/13 14:02:29;;;;;;;2.83;0.30;;;21.90;43.50;;;;;;5061087;28;20040;-73
2022/05/13 14:04:56;;;;;;;2.80;0.40;;;21.90;43.60;;;;;;5059300;28;20041;-72
2022/05/13 14:07:22;;;;;;;2.75;0.20;;;21.90;43.60;;;;;;5047862;28;20037;-72
2022/05/13 14:09:48;;;;;;;2.30;0.30;;;22.00;43.50;;;;;;5048881;28;20087;-70
2022/05/13 14:12:18;;;;;;;1.08;0.15;;;22.00;43.20;;;;;;5050525;28;20037;-70
2022/05/13 14:14:50;;;;;;;1.92;0.20;;;22.00;42.90;;;;;;5050230;28;20037;-72
2022/05/13 14:17:23;;;;;;;0.82;0.17;;;22.00;42.90;;;;;;5038065;28;20500;-73
2022/05/13 14:20:00;;;;;;;1.10;0.20;;;22.10;43.00;;;;;;5030475;28;20040;-71
2022/05/13 14:22:26;;;;;;;1.05;0.28;;;22.10;43.20;;;;;;5032588;28;20041;-71
2022/05/13 14:25:12;;;;;;;1.98;0.20;;;22.10;43.20;;;;;;5050670;28;20037;-70
2022/05/13 14:27:38;;;;;;;2.72;0.20;;;22.10;43.20;;;;;;5052202;28;20048;-71
2022/05/13 14:30:09;;;;;;;3.63;0.35;;;22.10;43.30;;;;;;5048463;28;20048;-71
2022/05/13 14:32:38;;;;;;;1.90;0.30;;;22.20;43.30;;;;;;5051273;28;20136;-70
2022/05/13 14:35:10;;;;;;;3.50;0.28;;;22.20;43.30;;;;;;5067980;28;20048;-70
2022/05/13 14:37:40;;;;;;;2.65;0.32;;;22.20;43.20;;;;;;5050351;28;20144;-72
2022/05/13 14:40:12;;;;;;;3.08;0.30;;;22.20;43.20;;;;;;5053791;28;20029;-73
2022/05/13 14:42:44;;;;;;;1.80;0.30;;;22.20;43.10;;;;;;5031126;28;20043;-71
2022/05/13 14:56:42;;;;;;;3.03;0.32;;;22.30;43.00;;;;;;5086315;27;20390;-75
2022/05/13 14:59:14;;;;;;;4.82;0.30;;;22.30;43.00;;;;;;5086769;28;20085;-78
2022/05/13 15:01:42;;;;;;;2.67;0.22;;;22.30;43.30;;;;;;5086041;28;20046;-74
2022/05/13 15:04:26;;;;;;;4.78;0.20;;;22.30;43.40;;;;;;5087091;28;20036;-71
2022/05/13 15:06:52;;;;;;;3.30;0.30;;;22.30;43.60;;;;;;5086239;28;20431;-76
2022/05/13 15:09:23;;;;;;;1.88;0.30;;;22.30;43.50;;;;;;5086608;28;20032;-73
2022/05/13 15:11:51;;;;;;;2.28;0.20;;;22.30;43.50;;;;;;5086051;28;20033;-73
2022/05/13 15:14:17;;;;;;;3.03;0.30;;;22.30;43.40;;;;;;5086126;28;20048;-71
2022/05/13 15:16:43;;;;;;;2.70;0.30;;;22.30;43.30;;;;;;5084587;28;20044;-75
2022/05/13 15:19:24;;;;;;;2.17;0.20;;;22.30;43.30;;;;;;5086910;28;20044;-78
2022/05/13 15:22:09;;;;;;;5.88;0.47;;;22.30;43.20;;;;;;5087280;28;20044;-77
2022/05/13 15:24:38;;;;;;;2.72;0.20;;;22.30;43.20;;;;;;5087247;28;20504;-76
2022/05/13 15:27:07;;;;;;;2.30;0.35;;;22.30;43.20;;;;;;5086799;28;20044;-76
2022/05/13 15:29:36;;;;;;;3.03;0.35;;;22.30;43.20;;;;;;5086995;28;20066;-77
2022/05/13 15:32:05;;;;;;;1.90;0.20;;;22.20;43.20;;;;;;5087125;28;20090;-76
2022/05/13 15:34:31;;;;;;;5.93;0.22;;;22.20;43.30;;;;;;5087407;28;20380;-76
2022/05/13 15:36:57;;;;;;;1.63;0.20;;;22.20;43.30;;;;;;5088423;28;20123;-77